Time;durP1;ratioP1;P1;durP2;ratioP2;P2;SDS_P1;SDS_P2;PMS_P1;PMS_P2;Temp;Humidity;BMP_temperature;BMP_pressure;BME280_temperature;BME280_humidity;BME280_pressure;Samples;Min_cycle;Max_cycle;Signal;HPM_P1;HPM_P2
2021/01/24 00:01:31;;;;;;;2.87;2.67;;;;;;;3.31;100.00;94044.53;4994317;28;20180;-60
2021/01/24 00:03:57;;;;;;;2.50;2.30;;;;;;;3.09;100.00;94046.25;4999429;28;20222;-59
2021/01/24 00:06:22;;;;;;;2.17;2.03;;;;;;;3.07;100.00;94043.13;5013559;28;20206;-60
2021/01/24 00:08:47;;;;;;;1.90;1.80;;;;;;;3.06;100.00;94052.69;5013350;28;20173;-57
2021/01/24 00:11:13;;;;;;;2.00;1.90;;;;;;;3.17;100.00;94052.88;5012828;28;20185;-57
2021/01/24 00:13:38;;;;;;;1.73;1.63;;;;;;;3.09;100.00;94056.63;5011254;28;20203;-57
2021/01/24 00:16:04;;;;;;;2.00;1.90;;;;;;;3.38;100.00;94052.91;5012169;28;20269;-57
2021/01/24 00:18:29;;;;;;;1.70;1.70;;;;;;;3.27;100.00;94064.16;5013365;28;20624;-60
2021/01/24 00:20:55;;;;;;;1.53;1.43;;;;;;;3.16;100.00;94062.44;5012333;28;20254;-57
2021/01/24 00:23:20;;;;;;;1.80;1.70;;;;;;;3.08;100.00;94055.84;5012922;28;20172;-60
2021/01/24 00:25:45;;;;;;;2.07;1.97;;;;;;;3.06;100.00;94059.72;5013002;28;20649;-60
2021/01/24 00:28:11;;;;;;;2.13;1.93;;;;;;;2.84;100.00;94056.25;5011703;28;20757;-57
2021/01/24 00:30:36;;;;;;;1.90;1.80;;;;;;;3.08;100.00;94049.88;5013500;28;20172;-60
2021/01/24 00:33:02;;;;;;;2.00;1.90;;;;;;;3.22;100.00;94056.31;5012069;28;20193;-60
2021/01/24 00:35:27;;;;;;;1.90;1.80;;;;;;;3.30;99.68;94055.91;5012867;28;20217;-57
2021/01/24 00:37:53;;;;;;;2.30;2.20;;;;;;;3.29;100.00;94056.94;5013061;28;20705;-60
2021/01/24 00:40:19;;;;;;;1.90;1.80;;;;;;;3.27;100.00;94065.97;5012896;28;20637;-60
2021/01/24 00:42:44;;;;;;;2.13;1.93;;;;;;;3.15;100.00;94072.03;5012067;28;20409;-60
2021/01/24 00:45:10;;;;;;;2.30;2.20;;;;;;;3.15;100.00;94066.06;4997033;28;20225;-60
2021/01/24 00:47:36;;;;;;;2.37;2.27;;;;;;;3.14;100.00;94065.28;5004956;28;20181;-60
2021/01/24 00:50:03;;;;;;;2.80;2.60;;;;;;;2.92;100.00;94071.41;5016474;28;20193;-57
2021/01/24 00:52:29;;;;;;;1.40;1.40;;;;;;;2.80;100.00;94068.09;5011510;28;20508;-60
2021/01/24 00:54:55;;;;;;;2.20;2.10;;;;;;;2.94;100.00;94074.53;4996811;28;20467;-57
2021/01/24 00:57:21;;;;;;;4.10;1.90;;;;;;;2.93;100.00;94073.78;5009906;28;20422;-60
2021/01/24 00:59:46;;;;;;;1.70;1.60;;;;;;;3.17;99.94;94090.75;5016392;28;20181;-57
2021/01/24 01:02:12;;;;;;;1.43;1.40;;;;;;;2.98;100.00;94089.41;5016894;28;20418;-60
2021/01/24 01:04:37;;;;;;;1.87;1.77;;;;;;;3.24;99.88;94085.41;5015605;28;20200;-57
2021/01/24 01:07:02;;;;;;;2.20;1.73;;;;;;;3.17;100.00;94089.19;5016177;28;20588;-57
2021/01/24 01:09:28;;;;;;;1.60;1.50;;;;;;;3.25;98.93;94086.97;5016668;28;20526;-57
2021/01/24 01:11:53;;;;;;;1.80;1.70;;;;;;;3.29;99.22;94084.69;5016674;28;20336;-60
2021/01/24 01:14:18;;;;;;;1.60;1.50;;;;;;;3.05;100.00;94087.44;5015965;28;20265;-57
2021/01/24 01:16:44;;;;;;;1.50;1.40;;;;;;;3.12;99.67;94090.66;5015995;28;20243;-60
2021/01/24 01:19:09;;;;;;;1.37;1.27;;;;;;;3.18;99.91;94078.56;5000416;28;20183;-60
2021/01/24 01:21:35;;;;;;;1.80;1.70;;;;;;;3.26;99.25;94085.97;4996742;28;20178;-57
2021/01/24 01:24:01;;;;;;;2.20;2.10;;;;;;;3.29;99.20;94093.25;5011670;28;20273;-60
2021/01/24 01:26:26;;;;;;;1.73;1.63;;;;;;;3.12;99.31;94087.28;5016578;28;20919;-57
2021/01/24 01:28:52;;;;;;;2.47;2.27;;;;;;;3.15;99.66;94077.22;5015999;28;20193;-60
2021/01/24 01:31:17;;;;;;;2.33;2.20;;;;;;;3.28;99.04;94081.31;5016078;28;20180;-60
2021/01/24 01:33:42;;;;;;;2.13;2.03;;;;;;;3.34;98.79;94079.56;5015721;28;20201;-57
2021/01/24 01:36:08;;;;;;;2.70;2.40;;;;;;;3.24;98.76;94079.44;5015976;28;20210;-57
2021/01/24 01:38:33;;;;;;;3.20;2.90;;;;;;;3.27;98.77;94077.16;5014436;28;20694;-57
2021/01/24 01:40:59;;;;;;;2.53;2.33;;;;;;;3.08;99.54;94083.56;5014268;28;20671;-60
2021/01/24 01:43:24;;;;;;;3.00;2.80;;;;;;;2.94;100.00;94080.53;5015025;28;20178;-57
2021/01/24 01:45:49;;;;;;;3.00;2.80;;;;;;;3.06;99.59;94077.88;5015994;28;20548;-57
2021/01/24 01:48:17;;;;;;;2.73;2.53;;;;;;;3.17;99.79;94078.81;5015975;28;20173;-60
2021/01/24 01:50:42;;;;;;;2.70;2.50;;;;;;;3.22;99.06;94084.06;5015865;28;20184;-60
2021/01/24 01:53:08;;;;;;;3.00;2.80;;;;;;;3.15;99.09;94087.59;5014914;28;20445;-57
2021/01/24 01:55:33;;;;;;;2.77;2.57;;;;;;;3.20;99.35;94084.31;5011928;28;20256;-60
2021/01/24 01:57:58;;;;;;;2.13;2.03;;;;;;;2.83;100.00;94086.56;5015018;28;20237;-57
2021/01/24 02:00:24;;;;;;;2.27;2.07;;;;;;;2.67;100.00;94094.31;5015067;28;20509;-57
2021/01/24 02:03:16;;;;;;;2.00;1.90;;;;;;;2.85;100.00;94096.69;5014638;28;20189;-57
2021/01/24 02:06:32;;;;;;;2.30;2.10;;;;;;;2.45;100.00;94108.94;5010845;28;20231;-57
2021/01/24 02:09:13;;;;;;;1.03;1.03;;;;;;;2.37;100.00;94111.91;4955303;29;20411;-60
2021/01/24 02:11:47;;;;;;;1.40;1.30;;;;;;;2.47;100.00;94120.66;4999444;28;20424;-57
2021/01/24 02:14:55;;;;;;;0.83;0.83;;;;;;;2.23;100.00;94126.91;4995445;28;20483;-60
2021/01/24 02:17:22;;;;;;;0.93;0.93;;;;;;;2.18;100.00;94134.59;4973295;28;20536;-57
2021/01/24 02:19:57;;;;;;;1.10;1.10;;;;;;;2.37;100.00;94143.00;4996039;28;20410;-57
2021/01/24 02:22:27;;;;;;;0.90;0.90;;;;;;;2.49;100.00;94148.91;5015229;28;20405;-60
2021/01/24 02:25:01;;;;;;;0.80;0.80;;;;;;;2.57;100.00;94149.34;5014728;28;20457;-57
2021/01/24 02:28:02;;;;;;;0.40;0.40;;;;;;;2.45;100.00;94156.38;5015358;28;20406;-60
2021/01/24 02:30:33;;;;;;;1.77;0.60;;;;;;;2.54;99.51;94160.16;4944892;28;20412;-60
2021/01/24 02:33:15;;;;;;;0.70;0.70;;;;;;;2.49;100.00;94164.47;5014837;28;20528;-57
2021/01/24 02:35:43;;;;;;;0.40;0.40;;;;;;;2.60;99.07;94172.22;5006998;28;20485;-56
2021/01/24 02:38:10;;;;;;;0.33;0.30;;;;;;;2.62;97.76;94200.47;4995495;28;20900;-60
2021/01/24 02:40:37;;;;;;;0.40;0.40;;;;;;;2.71;98.06;94191.31;4995296;28;20407;-60
2021/01/24 02:43:06;;;;;;;0.30;0.30;;;;;;;2.41;97.23;94199.28;4994836;28;20403;-59
2021/01/24 02:45:34;;;;;;;0.43;0.43;;;;;;;2.38;97.77;94197.16;5004763;28;20791;-60
2021/01/24 02:48:01;;;;;;;0.30;0.30;;;;;;;2.41;97.63;94201.88;5014871;28;20451;-60
2021/01/24 02:50:28;;;;;;;0.40;0.40;;;;;;;2.47;97.29;94207.94;5006046;28;20428;-57
2021/01/24 02:52:56;;;;;;;0.80;0.80;;;;;;;2.57;96.37;94218.53;5014378;28;20464;-57
2021/01/24 02:55:21;;;;;;;0.70;0.70;;;;;;;2.22;95.17;94220.38;5014566;28;20433;-57
2021/01/24 02:57:47;;;;;;;0.80;0.80;;;;;;;2.21;96.21;94232.53;5014649;28;20413;-57
2021/01/24 03:00:13;;;;;;;1.40;1.30;;;;;;;2.37;93.76;94226.69;5013911;28;20560;-60
2021/01/24 03:02:38;;;;;;;0.97;0.97;;;;;;;2.44;91.99;94244.69;5014605;28;20216;-60
2021/01/24 03:05:04;;;;;;;1.03;0.93;;;;;;;2.35;92.30;94236.47;5013346;28;20527;-59
2021/01/24 03:07:30;;;;;;;0.97;0.87;;;;;;;2.23;90.61;94247.88;5008791;28;20171;-57
2021/01/24 03:09:56;;;;;;;0.93;0.93;;;;;;;2.16;91.24;94258.34;4994770;28;20495;-57
2021/01/24 03:12:26;;;;;;;1.80;1.70;;;;;;;2.30;93.07;94256.31;4995134;28;20410;-60
2021/01/24 03:14:53;;;;;;;1.10;1.00;;;;;;;2.13;95.08;94273.53;4994281;28;20764;-57
2021/01/24 03:17:20;;;;;;;1.10;1.10;;;;;;;2.23;96.58;94284.91;4995744;28;20409;-58
2021/01/24 03:19:46;;;;;;;2.10;1.50;;;;;;;1.95;97.51;94285.59;5014041;28;20430;-57
2021/01/24 03:22:13;;;;;;;1.70;1.60;;;;;;;2.15;98.31;94294.81;5010586;28;20522;-61
2021/01/24 03:24:40;;;;;;;1.70;1.60;;;;;;;2.27;97.44;94305.97;4994252;28;20499;-57
2021/01/24 03:27:06;;;;;;;1.80;1.70;;;;;;;2.46;97.37;94310.03;4994451;28;20409;-61
2021/01/24 03:29:31;;;;;;;2.20;2.00;;;;;;;2.15;99.95;94324.09;5005341;28;20435;-60
2021/01/24 03:31:56;;;;;;;1.70;1.60;;;;;;;2.19;100.00;94324.44;5013689;28;20255;-60
2021/01/24 03:34:24;;;;;;;1.33;1.23;;;;;;;1.99;99.91;94335.13;5013492;28;20206;-60
2021/01/24 03:36:51;;;;;;;1.50;1.40;;;;;;;1.86;99.63;94330.13;5011896;28;20214;-60
2021/01/24 03:39:17;;;;;;;2.43;2.23;;;;;;;1.75;98.00;94342.03;4994342;28;20426;-60
2021/01/24 03:41:44;;;;;;;2.27;2.07;;;;;;;1.68;96.54;94343.16;4995268;28;20430;-57
2021/01/24 03:44:09;;;;;;;2.00;1.90;;;;;;;1.80;95.75;94343.94;4993787;28;20457;-60
2021/01/24 03:46:35;;;;;;;2.30;2.10;;;;;;;1.75;94.25;94349.00;5004438;28;20428;-60
2021/01/24 03:49:01;;;;;;;3.30;2.47;;;;;;;1.90;93.26;94357.94;5013973;28;20169;-57
2021/01/24 03:51:28;;;;;;;3.70;2.10;;;;;;;1.77;93.84;94352.16;5013739;28;20498;-57
2021/01/24 03:53:54;;;;;;;2.00;1.90;;;;;;;1.93;92.98;94360.09;5013341;28;20472;-60
2021/01/24 03:56:20;;;;;;;3.30;2.63;;;;;;;2.00;91.96;94367.75;5010677;28;20454;-60
2021/01/24 03:58:45;;;;;;;2.80;2.57;;;;;;;1.74;92.99;94374.09;5013780;28;20886;-57
2021/01/24 04:01:11;;;;;;;2.60;2.40;;;;;;;1.73;92.16;94374.31;5013483;28;20654;-60
2021/01/24 04:03:36;;;;;;;6.40;2.90;;;;;;;1.51;93.02;94379.19;5013129;28;20639;-57
2021/01/24 04:06:01;;;;;;;2.87;2.60;;;;;;;1.67;92.79;94382.94;5013687;28;20219;-57
2021/01/24 04:08:27;;;;;;;2.93;2.73;;;;;;;1.56;92.96;94388.91;5014142;28;20185;-59
2021/01/24 04:10:52;;;;;;;3.47;2.57;;;;;;;1.65;90.51;94387.59;5004693;28;20170;-60
2021/01/24 04:13:17;;;;;;;2.10;1.90;;;;;;;1.62;89.82;94378.44;5013274;28;20201;-57
2021/01/24 04:15:43;;;;;;;2.27;2.07;;;;;;;1.43;90.48;94383.88;5013598;28;20200;-60
2021/01/24 04:18:08;;;;;;;2.73;2.53;;;;;;;1.62;90.77;94396.56;5016466;28;20251;-60
2021/01/24 04:20:34;;;;;;;2.70;2.50;;;;;;;1.63;89.99;94395.53;5017489;28;20176;-57
2021/01/24 04:22:59;;;;;;;2.40;2.20;;;;;;;1.73;90.33;94398.41;5017137;28;20207;-57
2021/01/24 04:25:25;;;;;;;2.63;1.93;;;;;;;1.58;89.85;94397.22;5007260;28;20271;-57
2021/01/24 04:27:50;;;;;;;3.60;2.40;;;;;;;1.63;89.90;94399.94;5017369;28;20308;-57
2021/01/24 04:30:16;;;;;;;2.10;1.90;;;;;;;1.51;91.16;94399.88;5017219;28;20645;-57
2021/01/24 04:32:42;;;;;;;2.90;2.57;;;;;;;1.55;91.11;94402.81;5017331;28;20208;-60
2021/01/24 04:35:08;;;;;;;2.27;2.07;;;;;;;1.35;91.70;94399.69;5016105;28;20197;-58
2021/01/24 04:37:33;;;;;;;2.80;2.23;;;;;;;1.37;89.56;94411.41;5017401;28;20176;-60
2021/01/24 04:39:59;;;;;;;3.07;2.37;;;;;;;1.47;88.75;94409.09;5017203;28;20400;-60
2021/01/24 04:42:25;;;;;;;2.10;2.00;;;;;;;1.34;86.08;94418.81;5016814;28;20256;-60
2021/01/24 04:44:51;;;;;;;2.13;1.70;;;;;;;1.13;82.02;94425.22;5007136;28;20531;-60
2021/01/24 04:47:18;;;;;;;2.30;2.10;;;;;;;1.20;81.29;94425.91;4997524;28;20204;-60
2021/01/24 04:49:43;;;;;;;2.30;1.93;;;;;;;0.92;80.82;94439.31;4997384;28;20412;-57
2021/01/24 04:52:09;;;;;;;2.30;2.10;;;;;;;1.08;81.52;94427.66;4995883;28;20417;-56
2021/01/24 04:54:35;;;;;;;4.73;2.37;;;;;;;1.16;82.21;94436.94;4996858;28;20201;-60
2021/01/24 04:57:01;;;;;;;2.50;2.30;;;;;;;1.35;80.31;94441.06;5002721;28;20176;-60
2021/01/24 04:59:26;;;;;;;4.03;2.27;;;;;;;1.20;79.31;94428.50;5012913;28;20415;-60
2021/01/24 05:01:53;;;;;;;2.77;2.17;;;;;;;1.15;80.02;94451.63;5016841;28;20515;-59
2021/01/24 05:04:18;;;;;;;1.77;1.67;;;;;;;1.04;81.02;94447.97;5016323;28;20211;-60
2021/01/24 05:06:43;;;;;;;1.90;1.80;;;;;;;1.05;81.18;94451.34;5017074;28;20898;-57
2021/01/24 05:09:10;;;;;;;1.87;1.70;;;;;;;0.81;83.31;94449.59;5016810;28;20173;-60
2021/01/24 05:11:35;;;;;;;2.40;2.00;;;;;;;0.77;84.84;94456.97;5016246;28;20184;-57
2021/01/24 05:14:24;;;;;;;2.27;2.07;;;;;;;0.71;84.83;94452.66;5015413;28;20455;-57
2021/01/24 05:16:52;;;;;;;4.33;2.83;;;;;;;0.75;86.96;94442.69;5007203;28;20204;-60
2021/01/24 05:19:19;;;;;;;2.63;2.40;;;;;;;0.88;88.69;94465.81;5016453;28;20416;-57
2021/01/24 05:21:46;;;;;;;5.47;3.20;;;;;;;0.63;92.33;94449.56;5016276;28;20407;-57
2021/01/24 05:24:14;;;;;;;3.00;2.50;;;;;;;0.60;90.99;94448.19;5001687;28;20439;-56
2021/01/24 05:26:47;;;;;;;2.60;2.40;;;;;;;0.79;90.35;94454.97;5015415;28;20421;-57
2021/01/24 05:29:26;;;;;;;3.13;2.90;;;;;;;0.80;89.82;94456.53;5014709;28;20407;-57
2021/01/24 05:31:54;;;;;;;3.13;2.93;;;;;;;0.76;89.88;94455.38;5016315;28;20426;-57
2021/01/24 05:34:24;;;;;;;4.90;2.50;;;;;;;0.61;89.98;94461.91;5014763;28;20554;-57
2021/01/24 05:36:50;;;;;;;3.20;2.70;;;;;;;0.53;90.61;94462.94;5016147;28;20511;-60
2021/01/24 05:39:15;;;;;;;2.60;2.30;;;;;;;0.51;89.89;94462.38;5015910;28;20818;-57
2021/01/24 05:41:46;;;;;;;3.27;2.97;;;;;;;0.42;89.32;94466.22;5015868;28;20165;-57
2021/01/24 05:44:16;;;;;;;3.57;2.47;;;;;;;0.36;88.85;94469.66;5015691;28;20442;-57
2021/01/24 05:46:42;;;;;;;3.53;2.70;;;;;;;0.60;88.80;94465.47;5015866;28;20497;-60
2021/01/24 05:49:10;;;;;;;4.80;2.83;;;;;;;0.53;88.20;94477.66;5014085;28;20427;-60
2021/01/24 05:51:35;;;;;;;3.03;2.77;;;;;;;0.48;87.17;94480.06;5015497;28;20442;-57
2021/01/24 05:54:01;;;;;;;3.27;2.97;;;;;;;0.47;86.98;94476.69;5014553;28;20855;-59
2021/01/24 05:56:28;;;;;;;3.67;3.33;;;;;;;0.53;87.27;94485.38;5015751;28;20169;-57
2021/01/24 05:58:55;;;;;;;4.73;3.20;;;;;;;0.47;87.78;94488.84;5015856;28;20778;-57
2021/01/24 06:01:22;;;;;;;6.20;3.27;;;;;;;0.64;87.88;94495.03;5015711;28;20400;-59
2021/01/24 06:03:48;;;;;;;3.80;2.93;;;;;;;0.62;88.65;94503.00;5015165;28;20439;-57
2021/01/24 06:06:14;;;;;;;3.40;2.87;;;;;;;0.57;88.70;94502.06;5015359;28;20459;-60
2021/01/24 06:08:39;;;;;;;4.27;2.80;;;;;;;0.65;88.37;94512.91;5014105;28;20415;-58
2021/01/24 06:11:07;;;;;;;3.40;3.10;;;;;;;0.62;88.69;94528.03;5015168;28;20422;-60
2021/01/24 06:13:34;;;;;;;3.40;2.93;;;;;;;0.60;88.87;94530.03;5024589;28;20227;-59
2021/01/24 06:16:12;;;;;;;8.50;3.50;;;;;;;0.66;89.47;94537.75;5022954;28;20421;-60
2021/01/24 06:18:48;;;;;;;4.33;3.10;;;;;;;0.59;88.90;94539.59;5014627;28;20411;-57
2021/01/24 06:21:22;;;;;;;3.50;3.20;;;;;;;0.59;88.93;94539.59;5015188;28;20403;-57
2021/01/24 06:23:55;;;;;;;3.77;3.40;;;;;;;0.47;90.89;94548.22;5012979;28;20434;-57
2021/01/24 06:26:24;;;;;;;3.80;3.40;;;;;;;0.76;90.14;94550.22;5014824;28;20448;-59
2021/01/24 06:28:57;;;;;;;2.43;2.23;;;;;;;0.86;88.70;94551.31;5014311;28;20431;-57
2021/01/24 06:31:22;;;;;;;4.83;3.23;;;;;;;0.85;88.51;94557.47;5014718;28;20428;-57
2021/01/24 06:33:52;;;;;;;3.13;2.80;;;;;;;0.50;89.47;94560.72;5014476;28;20466;-57
2021/01/24 06:36:17;;;;;;;5.13;3.23;;;;;;;0.70;89.80;94569.13;5014469;28;20557;-57
2021/01/24 06:38:51;;;;;;;3.23;2.90;;;;;;;0.59;89.35;94564.63;5001304;28;20440;-60
2021/01/24 06:41:46;;;;;;;4.57;3.43;;;;;;;0.68;89.21;94565.97;5005181;28;20201;-57
2021/01/24 06:44:34;;;;;;;3.23;2.90;;;;;;;0.78;87.64;94571.47;5014529;28;20545;-57
2021/01/24 06:47:01;;;;;;;3.60;3.03;;;;;;;0.78;87.04;94567.06;5013027;28;20514;-57
2021/01/24 06:49:36;;;;;;;3.30;3.00;;;;;;;0.65;86.27;94562.00;5013823;28;20774;-57
2021/01/24 06:52:28;;;;;;;2.87;2.67;;;;;;;0.70;85.98;94571.72;5013086;28;20517;-60
2021/01/24 06:54:53;;;;;;;2.60;2.33;;;;;;;0.70;85.00;94585.44;5010208;28;20479;-59
2021/01/24 06:57:29;;;;;;;4.50;3.23;;;;;;;0.86;85.52;94581.53;5014386;28;20430;-57
2021/01/24 07:00:17;;;;;;;4.40;2.70;;;;;;;0.95;85.39;94588.03;5014602;28;20169;-60
2021/01/24 07:02:43;;;;;;;3.40;2.67;;;;;;;0.86;87.32;94591.88;5012442;28;20424;-58
2021/01/24 07:05:24;;;;;;;4.20;3.27;;;;;;;1.17;87.07;94596.22;5013702;28;20494;-59
2021/01/24 07:07:54;;;;;;;4.47;3.60;;;;;;;0.92;89.99;94604.75;5013129;28;20201;-60
2021/01/24 07:10:38;;;;;;;4.20;3.10;;;;;;;0.94;89.37;94615.66;5014605;28;20439;-57
2021/01/24 07:13:24;;;;;;;3.77;3.47;;;;;;;0.62;90.54;94606.34;5013106;28;20465;-59
2021/01/24 07:15:58;;;;;;;5.07;4.10;;;;;;;0.56;91.00;94603.81;5001686;28;20435;-60
2021/01/24 07:18:24;;;;;;;2.47;2.27;;;;;;;0.49;91.16;94598.66;5014273;28;20408;-56
2021/01/24 07:20:51;;;;;;;5.60;3.30;;;;;;;0.71;90.54;94607.69;5013503;28;20430;-60
2021/01/24 07:23:18;;;;;;;3.70;2.80;;;;;;;0.69;89.94;94601.16;5013837;28;20447;-60
2021/01/24 07:25:44;;;;;;;4.13;3.10;;;;;;;0.79;88.48;94607.44;5013845;28;20940;-60
2021/01/24 07:28:10;;;;;;;3.67;3.37;;;;;;;0.90;87.86;94603.38;5012267;28;20418;-59
2021/01/24 07:30:39;;;;;;;3.37;3.07;;;;;;;0.80;86.32;94608.22;5013589;28;20427;-59
2021/01/24 07:33:04;;;;;;;4.43;3.10;;;;;;;0.68;86.88;94615.06;5013424;28;20220;-59
2021/01/24 07:35:34;;;;;;;6.77;5.27;;;;;;;0.72;86.51;94613.66;5011935;28;20476;-59
2021/01/24 07:38:00;;;;;;;3.07;2.47;;;;;;;0.61;85.61;94614.31;5013312;28;20188;-57
2021/01/24 07:40:25;;;;;;;3.90;3.50;;;;;;;0.86;85.34;94612.56;5011194;28;20479;-57
2021/01/24 07:42:51;;;;;;;4.50;4.10;;;;;;;0.78;84.94;94605.84;5009084;28;20415;-59
2021/01/24 07:45:16;;;;;;;3.67;3.37;;;;;;;0.65;85.90;94605.91;5013782;28;20192;-57
2021/01/24 07:47:42;;;;;;;8.50;2.80;;;;;;;0.58;85.32;94612.91;5013719;28;20183;-57
2021/01/24 07:50:08;;;;;;;2.97;2.70;;;;;;;0.61;85.62;94611.72;5013163;28;20187;-59
2021/01/24 07:52:33;;;;;;;5.67;4.30;;;;;;;0.71;84.54;94609.47;5013057;28;20222;-58
2021/01/24 07:54:59;;;;;;;5.90;3.73;;;;;;;0.64;85.77;94599.19;5011382;28;20852;-57
2021/01/24 07:57:25;;;;;;;3.10;2.90;;;;;;;0.55;83.87;94609.97;5012351;28;20643;-57
2021/01/24 07:59:50;;;;;;;3.00;2.80;;;;;;;0.49;84.19;94618.56;5013772;28;20639;-57
2021/01/24 08:02:16;;;;;;;2.80;2.27;;;;;;;0.54;84.31;94608.38;5013741;28;20195;-57
2021/01/24 08:04:42;;;;;;;4.63;3.50;;;;;;;0.68;83.38;94615.84;5011831;28;20192;-60
2021/01/24 08:07:08;;;;;;;2.27;2.13;;;;;;;0.68;82.30;94618.44;5011832;28;20962;-59
2021/01/24 08:09:36;;;;;;;2.37;2.17;;;;;;;0.61;83.85;94619.47;5000676;28;20177;-57
2021/01/24 08:12:11;;;;;;;3.03;2.00;;;;;;;0.62;83.09;94619.25;5004453;28;20420;-57
2021/01/24 08:14:40;;;;;;;2.30;1.70;;;;;;;0.54;84.27;94626.47;5012841;28;20470;-57
2021/01/24 08:17:08;;;;;;;2.70;2.20;;;;;;;0.75;83.49;94623.56;5013596;28;20498;-60
2021/01/24 08:19:34;;;;;;;2.47;2.27;;;;;;;0.75;83.02;94633.88;5005253;28;20407;-56
2021/01/24 08:22:00;;;;;;;2.43;2.23;;;;;;;0.66;83.33;94633.34;5009452;28;20431;-61
2021/01/24 08:24:25;;;;;;;3.43;2.23;;;;;;;0.70;84.27;94638.91;5012665;28;20921;-54
2021/01/24 08:26:52;;;;;;;8.70;2.47;;;;;;;0.67;84.36;94632.34;5012958;28;20177;-59
2021/01/24 08:29:17;;;;;;;2.37;2.23;;;;;;;0.66;84.41;94629.97;5012897;28;20214;-59
2021/01/24 08:31:45;;;;;;;2.83;2.20;;;;;;;0.65;84.07;94636.91;5013650;28;20779;-59
2021/01/24 08:34:12;;;;;;;3.53;1.90;;;;;;;0.47;85.75;94631.66;5005639;28;20217;-53
2021/01/24 08:36:38;;;;;;;5.13;2.37;;;;;;;0.57;85.48;94639.75;5001621;28;20428;-59
2021/01/24 08:39:05;;;;;;;2.87;2.67;;;;;;;0.77;84.50;94649.97;5013341;28;20415;-53
2021/01/24 08:41:33;;;;;;;4.10;2.87;;;;;;;0.71;85.77;94645.63;5013319;28;20407;-59
2021/01/24 08:44:16;;;;;;;3.07;2.77;;;;;;;0.78;85.66;94652.34;5012656;28;20450;-59
2021/01/24 08:46:48;;;;;;;2.30;2.10;;;;;;;0.78;86.59;94656.75;4996324;28;20437;-53
2021/01/24 08:49:25;;;;;;;6.40;2.67;;;;;;;0.62;86.10;94646.88;5013410;28;20778;-59
2021/01/24 08:51:53;;;;;;;5.63;3.53;;;;;;;1.01;86.35;94662.16;5013251;28;20457;-53
2021/01/24 08:54:24;;;;;;;4.00;3.60;;;;;;;1.19;86.11;94670.00;5011817;28;20470;-53
2021/01/24 08:56:50;;;;;;;3.60;2.50;;;;;;;1.20;85.24;94666.41;5013340;28;20774;-59
2021/01/24 08:59:22;;;;;;;4.70;3.40;;;;;;;0.99;86.07;94679.69;5013067;28;20498;-53
2021/01/24 09:01:50;;;;;;;3.30;2.77;;;;;;;1.32;84.58;94676.88;5012766;28;20419;-53
2021/01/24 09:04:23;;;;;;;3.23;2.57;;;;;;;1.32;85.09;94680.25;5014702;28;20434;-59
2021/01/24 09:07:05;;;;;;;3.43;2.50;;;;;;;1.10;84.77;94689.34;5005834;28;20493;-54
2021/01/24 09:09:32;;;;;;;2.30;2.10;;;;;;;1.17;85.73;94695.28;5014946;28;20431;-58
2021/01/24 09:11:59;;;;;;;2.80;2.60;;;;;;;1.19;86.64;94687.31;4998957;28;20499;-52
2021/01/24 09:14:25;;;;;;;3.37;3.10;;;;;;;1.49;84.86;94690.84;5008434;28;20493;-58
2021/01/24 09:17:02;;;;;;;3.53;2.50;;;;;;;1.42;84.80;94690.09;5016625;28;20424;-53
2021/01/24 09:19:27;;;;;;;3.90;2.43;;;;;;;1.33;85.26;94701.72;5015481;28;20427;-59
2021/01/24 09:21:54;;;;;;;3.87;2.77;;;;;;;1.36;87.58;94709.84;5016388;28;20414;-59
2021/01/24 09:24:19;;;;;;;2.60;2.40;;;;;;;1.59;88.05;94711.88;5015713;28;20246;-57
2021/01/24 09:26:45;;;;;;;2.87;2.43;;;;;;;1.40;87.96;94720.56;5016184;28;20898;-59
2021/01/24 09:29:11;;;;;;;2.90;2.70;;;;;;;1.47;89.28;94721.34;5014682;28;20181;-53
2021/01/24 09:31:37;;;;;;;3.33;3.03;;;;;;;1.14;92.27;94718.16;5015070;28;20776;-53
2021/01/24 09:34:02;;;;;;;3.70;3.17;;;;;;;1.41;92.27;94725.56;5015532;28;20558;-53
2021/01/24 09:36:27;;;;;;;4.43;4.03;;;;;;;1.44;92.18;94732.88;5015638;28;20177;-59
2021/01/24 09:38:53;;;;;;;5.67;4.50;;;;;;;1.35;91.76;94731.56;5016163;28;20549;-59
2021/01/24 09:41:18;;;;;;;13.93;7.20;;;;;;;1.36;92.37;94730.53;5015957;28;20176;-59
2021/01/24 09:43:43;;;;;;;12.00;6.00;;;;;;;1.42;93.00;94732.31;5014712;28;20184;-53
2021/01/24 09:46:09;;;;;;;5.23;3.93;;;;;;;1.63;92.23;94737.13;5016036;28;20172;-59
2021/01/24 09:48:34;;;;;;;8.63;6.67;;;;;;;1.46;92.74;94732.66;5015684;28;20170;-59
2021/01/24 09:50:59;;;;;;;9.20;4.87;;;;;;;1.71;91.70;94736.06;5015401;28;20180;-53
2021/01/24 09:53:25;;;;;;;9.20;6.20;;;;;;;1.56;92.10;94733.00;5014801;28;20276;-54
2021/01/24 09:55:50;;;;;;;4.23;3.83;;;;;;;1.56;91.19;94733.00;5016022;28;20655;-53
2021/01/24 09:58:15;;;;;;;4.90;4.40;;;;;;;1.57;90.38;94739.75;5015723;28;20174;-59
2021/01/24 10:00:41;;;;;;;16.80;10.30;;;;;;;1.48;90.52;94736.66;5014967;28;20203;-53
2021/01/24 10:03:06;;;;;;;5.87;4.60;;;;;;;1.51;90.85;94738.81;5015293;28;20181;-60
2021/01/24 10:05:31;;;;;;;4.30;3.10;;;;;;;1.56;89.74;94735.59;5015633;28;20192;-60
2021/01/24 10:07:57;;;;;;;5.80;4.30;;;;;;;1.46;91.19;94749.00;4999116;28;20228;-56
2021/01/24 10:10:22;;;;;;;7.77;5.57;;;;;;;1.75;88.69;94739.81;5003419;28;20180;-55
2021/01/24 10:12:47;;;;;;;4.53;3.73;;;;;;;1.89;87.68;94749.84;5012450;28;20181;-56
2021/01/24 10:15:13;;;;;;;5.03;4.53;;;;;;;1.78;86.99;94747.94;5011369;28;20971;-59
2021/01/24 10:17:39;;;;;;;3.80;3.43;;;;;;;1.78;87.37;94753.13;5011861;28;20598;-55
2021/01/24 10:20:05;;;;;;;4.00;3.60;;;;;;;1.95;85.76;94761.16;5011588;28;20185;-55
2021/01/24 10:22:30;;;;;;;3.07;2.43;;;;;;;1.89;84.80;94749.84;5011813;28;20653;-60
2021/01/24 10:24:55;;;;;;;2.23;2.13;;;;;;;1.89;83.94;94760.22;5004606;28;20456;-60
2021/01/24 10:27:21;;;;;;;3.37;3.07;;;;;;;1.94;81.56;94775.09;4992201;28;20538;-54
2021/01/24 10:29:46;;;;;;;2.27;2.07;;;;;;;1.60;81.03;94766.00;5010507;28;20278;-58
2021/01/24 10:32:11;;;;;;;2.17;1.73;;;;;;;1.29;81.28;94767.81;5010157;28;20185;-56
2021/01/24 10:34:37;;;;;;;2.23;2.03;;;;;;;1.62;81.09;94773.56;5011155;28;20210;-59
2021/01/24 10:37:02;;;;;;;2.30;1.80;;;;;;;1.50;80.00;94770.88;5010020;28;20239;-57
2021/01/24 10:39:27;;;;;;;2.20;2.00;;;;;;;1.78;80.02;94770.44;5007644;28;20200;-54
2021/01/24 10:41:53;;;;;;;3.30;1.70;;;;;;;1.71;79.63;94785.22;4991814;28;20578;-60
2021/01/24 10:44:18;;;;;;;2.40;2.17;;;;;;;1.87;79.29;94777.75;4993964;28;20198;-58
2021/01/24 10:46:44;;;;;;;3.07;2.20;;;;;;;2.02;78.40;94774.84;5011020;28;20194;-58
2021/01/24 10:49:10;;;;;;;2.27;1.80;;;;;;;2.19;76.73;94775.09;5010902;28;20188;-56
2021/01/24 10:51:36;;;;;;;1.53;1.43;;;;;;;2.23;74.99;94777.03;5011208;28;20257;-59
2021/01/24 10:54:01;;;;;;;2.83;1.87;;;;;;;2.13;75.02;94771.56;5010095;28;21336;-59
2021/01/24 10:56:27;;;;;;;2.40;1.90;;;;;;;2.29;74.76;94785.75;5011154;28;20772;-56
2021/01/24 10:58:52;;;;;;;2.80;2.33;;;;;;;2.32;75.17;94767.97;5009789;28;20187;-56
2021/01/24 11:01:17;;;;;;;2.50;1.60;;;;;;;2.31;73.67;94774.19;5002706;28;20220;-55
2021/01/24 11:03:43;;;;;;;1.90;1.80;;;;;;;2.64;72.23;94776.44;5010270;28;20568;-56
2021/01/24 11:06:08;;;;;;;1.57;1.23;;;;;;;2.74;70.02;94768.94;4990048;28;20226;-57
2021/01/24 11:08:34;;;;;;;2.80;1.70;;;;;;;3.10;68.90;94774.91;4991341;28;20180;-58
2021/01/24 11:10:59;;;;;;;2.07;1.87;;;;;;;3.18;69.08;94771.22;4991339;28;20258;-58
2021/01/24 11:13:25;;;;;;;2.93;1.00;;;;;;;2.65;67.70;94775.41;5006868;28;20215;-59
2021/01/24 11:15:50;;;;;;;2.47;2.27;;;;;;;2.47;70.68;94780.59;5010827;28;20241;-58
2021/01/24 11:18:15;;;;;;;2.33;2.20;;;;;;;2.63;69.74;94798.97;5010829;28;20189;-59
2021/01/24 11:20:41;;;;;;;2.43;2.23;;;;;;;3.08;68.10;94783.88;5009235;28;20220;-58
2021/01/24 11:23:11;;;;;;;4.57;3.03;;;;;;;3.88;65.28;94787.78;5010093;28;20232;-58
2021/01/24 11:25:38;;;;;;;3.10;1.60;;;;;;;4.20;62.93;94781.28;5009523;28;20216;-59
2021/01/24 11:28:05;;;;;;;2.07;1.87;;;;;;;4.72;61.22;94789.97;5009529;28;20510;-58
2021/01/24 11:30:30;;;;;;;2.97;2.03;;;;;;;4.70;61.08;94789.41;5010735;28;20414;-58
2021/01/24 11:32:55;;;;;;;4.53;1.93;;;;;;;4.43;61.98;94796.88;5010185;28;20415;-58
2021/01/24 11:35:21;;;;;;;2.50;1.70;;;;;;;4.12;62.16;94790.22;5009536;28;20216;-57
2021/01/24 11:37:46;;;;;;;2.00;1.70;;;;;;;3.31;64.89;94799.59;5009994;28;20269;-57
2021/01/24 11:40:12;;;;;;;1.50;1.40;;;;;;;2.87;66.80;94792.94;5008965;28;20193;-58
2021/01/24 11:42:40;;;;;;;3.07;1.80;;;;;;;2.99;68.86;94798.97;5006731;28;20190;-59
2021/01/24 11:45:06;;;;;;;2.60;1.53;;;;;;;2.73;69.59;94811.44;5009984;28;20433;-59